createdAt,value
2022-09-07T00:01:00.631Z,9.75
2022-09-07T00:03:28.518Z,9.74
2022-09-07T00:05:56.878Z,9.74
2022-09-07T00:08:27.258Z,9.73
2022-09-07T00:10:57.412Z,9.72
2022-09-07T00:13:28.776Z,9.71
2022-09-07T00:15:57.559Z,9.71
2022-09-07T00:18:25.682Z,9.71
2022-09-07T00:21:02.527Z,9.70
2022-09-07T00:23:31.637Z,9.66
2022-09-07T00:26:08.121Z,9.63
2022-09-07T00:28:37.267Z,9.61
2022-09-07T00:31:10.150Z,9.59
2022-09-07T00:33:37.870Z,9.54
2022-09-07T00:36:06.244Z,9.50
2022-09-07T00:38:34.185Z,9.47
2022-09-07T00:41:02.335Z,9.46
2022-09-07T00:43:39.444Z,9.45
2022-09-07T00:46:13.390Z,9.45
2022-09-07T00:48:44.880Z,9.44
2022-09-07T00:51:18.394Z,9.41
2022-09-07T00:53:49.356Z,9.38
2022-09-07T00:56:16.995Z,9.34
2022-09-07T00:58:45.010Z,9.30
2022-09-07T01:01:12.819Z,9.27
2022-09-07T01:03:45.113Z,9.25
2022-09-07T01:06:19.766Z,9.20
2022-09-07T01:08:52.192Z,9.15
2022-09-07T01:11:22.354Z,9.12
2022-09-07T01:13:52.244Z,9.10
2022-09-07T01:16:29.418Z,9.09
2022-09-07T01:19:35.605Z,9.08
2022-09-07T01:22:06.142Z,9.10
2022-09-07T01:24:52.814Z,9.10
2022-09-07T01:27:23.089Z,9.10
2022-09-07T01:30:08.248Z,9.11
2022-09-07T01:32:46.011Z,9.08
2022-09-07T01:35:31.816Z,9.05
2022-09-07T01:38:15.419Z,9.03
2022-09-07T01:40:42.973Z,9.02
2022-09-07T01:43:20.401Z,9.01
2022-09-07T01:45:48.249Z,8.99
2022-09-07T01:48:18.849Z,8.97
2022-09-07T01:51:00.823Z,8.95
2022-09-07T01:53:41.357Z,8.91
2022-09-07T01:56:17.814Z,8.88
2022-09-07T01:59:06.830Z,8.85
2022-09-07T02:01:41.545Z,8.84
2022-09-07T02:04:17.332Z,8.82
2022-09-07T02:07:00.127Z,8.80
2022-09-07T02:09:35.835Z,8.78
2022-09-07T02:12:13.410Z,8.75
2022-09-07T02:14:51.923Z,8.70
2022-09-07T02:17:34.990Z,8.68
2022-09-07T02:20:13.759Z,8.66
2022-09-07T02:22:45.754Z,8.64
2022-09-07T02:25:19.947Z,8.60
2022-09-07T02:27:54.682Z,8.57
2022-09-07T02:30:22.326Z,8.57
2022-09-07T02:32:50.490Z,8.55
2022-09-07T02:35:18.473Z,8.53
2022-09-07T02:37:48.588Z,8.49
2022-09-07T02:40:16.281Z,8.45
2022-09-07T02:42:47.130Z,8.40
2022-09-07T02:45:16.293Z,8.37
2022-09-07T02:48:15.388Z,8.34
2022-09-07T02:50:46.362Z,8.31
2022-09-07T02:53:53.288Z,8.28
2022-09-07T02:56:36.754Z,8.25
2022-09-07T02:59:10.015Z,8.22
2022-09-07T03:02:07.314Z,8.23
2022-09-07T03:04:41.348Z,8.20
2022-09-07T03:07:14.983Z,8.16
2022-09-07T03:09:46.371Z,8.14
2022-09-07T03:12:14.427Z,8.10
2022-09-07T03:14:43.514Z,8.07
2022-09-07T03:17:11.994Z,8.04
2022-09-07T03:19:39.861Z,8.03
2022-09-07T03:22:07.677Z,8.00
2022-09-07T03:24:36.616Z,7.98
2022-09-07T03:27:04.247Z,7.96
2022-09-07T03:29:31.858Z,7.95
2022-09-07T03:31:59.480Z,7.94
2022-09-07T03:34:27.050Z,7.91
2022-09-07T03:36:54.614Z,7.87
2022-09-07T03:39:23.735Z,7.81
2022-09-07T03:41:51.432Z,7.77
2022-09-07T03:44:19.045Z,7.74
2022-09-07T03:46:46.624Z,7.71
2022-09-07T03:49:15.687Z,7.69
2022-09-07T03:51:43.318Z,7.65
2022-09-07T03:54:10.929Z,7.61
2022-09-07T03:56:38.603Z,7.58
2022-09-07T03:59:06.332Z,7.56
2022-09-07T04:01:33.989Z,7.54
2022-09-07T04:04:02.864Z,7.52
2022-09-07T04:06:31.745Z,7.51
2022-09-07T04:09:04.685Z,7.54
2022-09-07T04:11:32.644Z,7.59
2022-09-07T04:14:00.431Z,7.64
2022-09-07T04:16:28.502Z,7.68
2022-09-07T04:18:56.117Z,7.71
2022-09-07T04:21:25.631Z,7.76
2022-09-07T04:23:53.320Z,7.81
2022-09-07T04:26:26.376Z,7.87
2022-09-07T04:28:54.804Z,7.94
2022-09-07T04:31:23.744Z,8.00
2022-09-07T04:33:52.119Z,8.05
2022-09-07T04:36:20.709Z,8.10
2022-09-07T04:38:54.668Z,8.15
2022-09-07T04:41:22.875Z,8.19
2022-09-07T04:43:56.629Z,8.21
2022-09-07T04:46:26.928Z,8.24
2022-09-07T04:48:57.472Z,8.28
2022-09-07T04:51:28.487Z,8.36
2022-09-07T04:53:57.765Z,8.43
2022-09-07T04:56:26.482Z,8.50
2022-09-07T04:58:54.108Z,8.59
2022-09-07T05:01:23.830Z,8.68
2022-09-07T05:03:52.104Z,8.76
2022-09-07T05:06:21.078Z,8.86
2022-09-07T05:08:51.377Z,8.94
2022-09-07T05:11:24.952Z,9.01
2022-09-07T05:13:57.425Z,9.07
2022-09-07T05:16:26.279Z,9.12
2022-09-07T05:19:01.684Z,9.17
2022-09-07T05:21:37.511Z,9.26
2022-09-07T05:24:22.620Z,9.34
2022-09-07T05:26:50.271Z,9.44
2022-09-07T05:32:05.593Z,9.58
2022-09-07T05:34:33.488Z,9.63
2022-09-07T05:37:02.165Z,9.72
2022-09-07T05:39:31.075Z,9.82
2022-09-07T05:41:58.740Z,9.93
2022-09-07T05:47:11.064Z,10.10
2022-09-07T05:50:00.884Z,10.17
2022-09-07T05:52:32.288Z,10.28
2022-09-07T05:55:13.390Z,10.38
2022-09-07T05:57:47.447Z,10.48
2022-09-07T06:00:15.312Z,10.58
2022-09-07T06:02:43.094Z,10.66
2022-09-07T06:05:11.209Z,10.75
2022-09-07T06:07:39.361Z,10.85
2022-09-07T06:12:57.288Z,11.06
2022-09-07T06:15:25.227Z,11.17
2022-09-07T06:17:53.947Z,11.28
2022-09-07T06:20:22.033Z,11.38
2022-09-07T06:22:50.537Z,11.48
2022-09-07T06:25:19.035Z,11.58
2022-09-07T06:28:03.124Z,11.67
2022-09-07T06:30:37.235Z,11.79
